sensor_id;sensor_type;location;lat;lon;timestamp;pressure;altitude;pressure_sealevel;temperature;humidity
78121;BME280;67585;44.802;10.332;2023-04-19T00:02:21;101090.03;;;13.95;53.46
78121;BME280;67585;44.802;10.332;2023-04-19T00:04:47;101095.97;;;13.77;53.81
78121;BME280;67585;44.802;10.332;2023-04-19T00:07:13;101096.78;;;13.72;53.58
78121;BME280;67585;44.802;10.332;2023-04-19T00:09:38;101096.53;;;13.79;53.36
78121;BME280;67585;44.802;10.332;2023-04-19T00:12:04;101085.41;;;13.80;53.11
78121;BME280;67585;44.802;10.332;2023-04-19T00:14:30;101100.03;;;13.69;54.37
78121;BME280;67585;44.802;10.332;2023-04-19T00:16:55;101085.69;;;13.79;52.91
78121;BME280;67585;44.802;10.332;2023-04-19T00:19:20;101092.72;;;13.80;53.95
78121;BME280;67585;44.802;10.332;2023-04-19T00:21:47;101092.19;;;13.93;53.56
78121;BME280;67585;44.802;10.332;2023-04-19T00:24:13;101092.16;;;13.67;53.58
78121;BME280;67585;44.802;10.332;2023-04-19T00:26:38;101085.41;;;13.85;53.06
78121;BME280;67585;44.802;10.332;2023-04-19T00:29:04;101091.38;;;13.87;54.45
78121;BME280;67585;44.802;10.332;2023-04-19T00:31:29;101093.53;;;13.70;54.30
78121;BME280;67585;44.802;10.332;2023-04-19T00:33:55;101093.53;;;13.90;55.25
78121;BME280;67585;44.802;10.332;2023-04-19T00:36:21;101082.38;;;13.56;55.00
78121;BME280;67585;44.802;10.332;2023-04-19T00:38:46;101084.59;;;13.64;54.42
78121;BME280;67585;44.802;10.332;2023-04-19T00:41:12;101087.84;;;13.97;54.50
78121;BME280;67585;44.802;10.332;2023-04-19T00:43:37;101087.53;;;13.58;54.51
78121;BME280;67585;44.802;10.332;2023-04-19T00:46:03;101078.09;;;13.71;53.47
78121;BME280;67585;44.802;10.332;2023-04-19T00:48:29;101084.28;;;13.61;53.80
78121;BME280;67585;44.802;10.332;2023-04-19T00:50:55;101081.56;;;13.45;54.58
78121;BME280;67585;44.802;10.332;2023-04-19T00:53:20;101075.06;;;13.52;54.11
78121;BME280;67585;44.802;10.332;2023-04-19T00:55:46;101072.91;;;13.54;54.12
78121;BME280;67585;44.802;10.332;2023-04-19T00:58:12;101079.34;;;13.37;55.22
78121;BME280;67585;44.802;10.332;2023-04-19T01:00:37;101077.22;;;13.44;54.92
78121;BME280;67585;44.802;10.332;2023-04-19T01:03:03;101081.31;;;13.62;54.39
78121;BME280;67585;44.802;10.332;2023-04-19T01:05:29;101089.75;;;13.76;54.15
78121;BME280;67585;44.802;10.332;2023-04-19T01:07:54;101092.44;;;13.71;54.15
78121;BME280;67585;44.802;10.332;2023-04-19T01:10:20;101075.66;;;13.74;53.33
78121;BME280;67585;44.802;10.332;2023-04-19T01:12:45;101076.47;;;13.70;53.34
78121;BME280;67585;44.802;10.332;2023-04-19T01:15:11;101074.31;;;13.72;53.52
78121;BME280;67585;44.802;10.332;2023-04-19T01:17:36;101079.69;;;13.66;54.51
78121;BME280;67585;44.802;10.332;2023-04-19T01:20:03;101078.88;;;13.56;54.96
78121;BME280;67585;44.802;10.332;2023-04-19T01:22:30;101072.88;;;13.33;54.63
78121;BME280;67585;44.802;10.332;2023-04-19T01:24:56;101074.47;;;13.34;55.25
78121;BME280;67585;44.802;10.332;2023-04-19T01:27:24;101071.84;;;13.55;54.63
78121;BME280;67585;44.802;10.332;2023-04-19T01:29:50;101079.41;;;13.58;54.19
78121;BME280;67585;44.802;10.332;2023-04-19T01:32:15;101069.94;;;13.50;54.30
78121;BME280;67585;44.802;10.332;2023-04-19T01:34:41;101071.03;;;13.59;53.78
78121;BME280;67585;44.802;10.332;2023-04-19T01:37:07;101071.31;;;13.63;53.61
78121;BME280;67585;44.802;10.332;2023-04-19T01:39:32;101069.13;;;13.55;54.00
78121;BME280;67585;44.802;10.332;2023-04-19T01:41:58;101073.75;;;13.59;53.90
78121;BME280;67585;44.802;10.332;2023-04-19T01:44:23;101068.03;;;13.56;54.72
78121;BME280;67585;44.802;10.332;2023-04-19T01:46:48;101062.63;;;13.45;54.03
78121;BME280;67585;44.802;10.332;2023-04-19T01:49:14;101058.00;;;13.41;54.52
78121;BME280;67585;44.802;10.332;2023-04-19T01:51:40;101056.84;;;13.26;54.72
78121;BME280;67585;44.802;10.332;2023-04-19T01:54:05;101060.16;;;13.44;54.38
78121;BME280;67585;44.802;10.332;2023-04-19T01:56:31;101060.16;;;13.39;55.26
78121;BME280;67585;44.802;10.332;2023-04-19T01:58:57;101056.09;;;13.41;54.56
78121;BME280;67585;44.802;10.332;2023-04-19T02:01:23;101058.25;;;13.39;55.59
78121;BME280;67585;44.802;10.332;2023-04-19T02:03:48;101043.94;;;13.54;54.14
78121;BME280;67585;44.802;10.332;2023-04-19T02:06:13;101050.97;;;13.40;55.52
78121;BME280;67585;44.802;10.332;2023-04-19T02:08:40;101048.25;;;13.40;55.02
78121;BME280;67585;44.802;10.332;2023-04-19T02:11:07;101049.91;;;13.56;53.96
78121;BME280;67585;44.802;10.332;2023-04-19T02:13:33;101045.25;;;13.36;55.11
78121;BME280;67585;44.802;10.332;2023-04-19T02:15:59;101058.31;;;13.55;54.50
78121;BME280;67585;44.802;10.332;2023-04-19T02:18:28;101046.94;;;13.68;54.12
78121;BME280;67585;44.802;10.332;2023-04-19T02:20:54;101052.91;;;13.55;54.74
78121;BME280;67585;44.802;10.332;2023-04-19T02:23:20;101044.47;;;13.46;54.57
78121;BME280;67585;44.802;10.332;2023-04-19T02:25:45;101041.22;;;13.44;55.16
78121;BME280;67585;44.802;10.332;2023-04-19T02:28:11;101023.63;;;13.41;54.48
78121;BME280;67585;44.802;10.332;2023-04-19T02:30:36;101051.00;;;13.65;54.53
78121;BME280;67585;44.802;10.332;2023-04-19T02:33:02;101042.88;;;13.60;54.68
78121;BME280;67585;44.802;10.332;2023-04-19T02:35:27;101046.38;;;13.51;55.27
78121;BME280;67585;44.802;10.332;2023-04-19T02:37:52;101040.97;;;13.45;54.80
78121;BME280;67585;44.802;10.332;2023-04-19T02:40:18;101045.28;;;13.52;55.55
78121;BME280;67585;44.802;10.332;2023-04-19T02:42:44;101042.06;;;13.50;54.94
78121;BME280;67585;44.802;10.332;2023-04-19T02:45:09;101032.84;;;13.45;55.98
78121;BME280;67585;44.802;10.332;2023-04-19T02:47:34;101039.06;;;13.51;54.87
78121;BME280;67585;44.802;10.332;2023-04-19T02:50:00;101035.81;;;13.44;54.83
78121;BME280;67585;44.802;10.332;2023-04-19T02:52:26;101034.75;;;13.40;55.77
78121;BME280;67585;44.802;10.332;2023-04-19T02:54:52;101031.19;;;13.39;55.89
78121;BME280;67585;44.802;10.332;2023-04-19T02:57:17;101036.34;;;13.36;56.14
78121;BME280;67585;44.802;10.332;2023-04-19T02:59:42;101029.78;;;13.26;55.53
78121;BME280;67585;44.802;10.332;2023-04-19T03:02:08;101039.81;;;13.26;55.85
78121;BME280;67585;44.802;10.332;2023-04-19T03:04:33;101046.09;;;13.42;55.50
78121;BME280;67585;44.802;10.332;2023-04-19T03:07:00;101041.47;;;13.37;55.55
78121;BME280;67585;44.802;10.332;2023-04-19T03:09:26;101038.22;;;13.30;55.54
78121;BME280;67585;44.802;10.332;2023-04-19T03:11:51;101043.84;;;13.23;55.43
78121;BME280;67585;44.802;10.332;2023-04-19T03:14:17;101040.03;;;13.19;56.33
78121;BME280;67585;44.802;10.332;2023-04-19T03:16:43;101047.03;;;13.10;56.55
78121;BME280;67585;44.802;10.332;2023-04-19T03:19:08;101042.72;;;13.09;56.15
78121;BME280;67585;44.802;10.332;2023-04-19T03:21:33;101047.84;;;13.05;56.96
78121;BME280;67585;44.802;10.332;2023-04-19T03:23:59;101046.75;;;13.01;56.54
78121;BME280;67585;44.802;10.332;2023-04-19T03:26:25;101050.50;;;12.95;57.15
78121;BME280;67585;44.802;10.332;2023-04-19T03:28:51;101055.38;;;12.98;56.66
78121;BME280;67585;44.802;10.332;2023-04-19T03:31:16;101041.34;;;12.96;56.17
78121;BME280;67585;44.802;10.332;2023-04-19T03:33:42;101046.38;;;12.77;57.20
78121;BME280;67585;44.802;10.332;2023-04-19T03:36:08;101043.00;;;13.13;55.69
78121;BME280;67585;44.802;10.332;2023-04-19T03:38:33;101056.69;;;12.86;57.30
78121;BME280;67585;44.802;10.332;2023-04-19T03:40:58;101048.53;;;12.80;57.05
78121;BME280;67585;44.802;10.332;2023-04-19T03:43:24;101044.47;;;12.78;57.23
78121;BME280;67585;44.802;10.332;2023-04-19T03:45:49;101048.59;;;12.91;57.02
78121;BME280;67585;44.802;10.332;2023-04-19T03:48:15;101035.03;;;12.86;56.83
78121;BME280;67585;44.802;10.332;2023-04-19T03:50:40;101040.25;;;12.97;56.47
78121;BME280;67585;44.802;10.332;2023-04-19T03:53:06;101032.38;;;12.91;56.16
78121;BME280;67585;44.802;10.332;2023-04-19T03:55:31;101032.94;;;13.03;55.77
78121;BME280;67585;44.802;10.332;2023-04-19T03:57:57;101030.38;;;12.71;57.27
78121;BME280;67585;44.802;10.332;2023-04-19T04:00:22;101032.75;;;12.62;57.62
78121;BME280;67585;44.802;10.332;2023-04-19T04:02:47;101035.84;;;12.86;56.58
78121;BME280;67585;44.802;10.332;2023-04-19T04:05:13;101031.75;;;12.73;57.60
78121;BME280;67585;44.802;10.332;2023-04-19T04:07:39;101030.91;;;12.63;57.48
78121;BME280;67585;44.802;10.332;2023-04-19T04:10:05;101035.13;;;12.48;58.25
78121;BME280;67585;44.802;10.332;2023-04-19T04:12:30;101034.59;;;12.51;57.41
78121;BME280;67585;44.802;10.332;2023-04-19T04:14:56;101032.84;;;12.72;58.02
78121;BME280;67585;44.802;10.332;2023-04-19T04:17:21;101032.06;;;12.77;56.54
78121;BME280;67585;44.802;10.332;2023-04-19T04:19:48;101028.50;;;12.71;57.48
78121;BME280;67585;44.802;10.332;2023-04-19T04:22:14;101044.81;;;12.39;58.60
78121;BME280;67585;44.802;10.332;2023-04-19T04:24:41;101033.59;;;12.63;57.71
78121;BME280;67585;44.802;10.332;2023-04-19T04:27:07;101036.38;;;12.78;57.48
78121;BME280;67585;44.802;10.332;2023-04-19T04:29:35;101030.59;;;12.59;57.99
78121;BME280;67585;44.802;10.332;2023-04-19T04:32:01;101030.63;;;12.69;57.35
78121;BME280;67585;44.802;10.332;2023-04-19T04:34:27;101034.19;;;12.70;56.93
78121;BME280;67585;44.802;10.332;2023-04-19T04:36:52;101032.81;;;12.67;56.38
78121;BME280;67585;44.802;10.332;2023-04-19T04:39:18;101027.41;;;12.67;56.17
78121;BME280;67585;44.802;10.332;2023-04-19T04:41:43;101033.41;;;12.74;56.04
78121;BME280;67585;44.802;10.332;2023-04-19T04:44:10;101032.16;;;12.50;55.90
78121;BME280;67585;44.802;10.332;2023-04-19T04:46:36;101032.50;;;12.58;55.84
78121;BME280;67585;44.802;10.332;2023-04-19T04:49:01;101035.78;;;12.71;56.10
78121;BME280;67585;44.802;10.332;2023-04-19T04:51:27;101036.31;;;12.63;56.31
78121;BME280;67585;44.802;10.332;2023-04-19T04:53:52;101036.81;;;12.17;58.59
78121;BME280;67585;44.802;10.332;2023-04-19T04:56:18;101043.25;;;12.11;58.81
78121;BME280;67585;44.802;10.332;2023-04-19T04:58:43;101032.44;;;12.48;57.91
78121;BME280;67585;44.802;10.332;2023-04-19T05:01:09;101044.09;;;12.59;57.11
78121;BME280;67585;44.802;10.332;2023-04-19T05:03:34;101007.53;;;12.41;58.18
78121;BME280;67585;44.802;10.332;2023-04-19T05:06:00;101043.63;;;12.67;58.32
78121;BME280;67585;44.802;10.332;2023-04-19T05:08:26;101040.75;;;12.42;58.90
78121;BME280;67585;44.802;10.332;2023-04-19T05:10:54;101050.53;;;12.10;59.43
78121;BME280;67585;44.802;10.332;2023-04-19T05:13:23;101040.63;;;12.21;58.87
78121;BME280;67585;44.802;10.332;2023-04-19T05:15:48;101057.09;;;12.19;60.38
78121;BME280;67585;44.802;10.332;2023-04-19T05:18:13;101048.66;;;11.84;60.64
78121;BME280;67585;44.802;10.332;2023-04-19T05:20:39;101052.72;;;12.13;60.70
78121;BME280;67585;44.802;10.332;2023-04-19T05:23:04;101046.50;;;12.13;59.78
78121;BME280;67585;44.802;10.332;2023-04-19T05:25:30;101056.78;;;12.16;59.78
78121;BME280;67585;44.802;10.332;2023-04-19T05:27:55;101055.97;;;12.53;59.06
78121;BME280;67585;44.802;10.332;2023-04-19T05:30:22;101055.44;;;12.56;59.05
78121;BME280;67585;44.802;10.332;2023-04-19T05:32:47;101057.75;;;12.37;59.31
78121;BME280;67585;44.802;10.332;2023-04-19T05:35:12;101049.47;;;12.54;59.71
78121;BME280;67585;44.802;10.332;2023-04-19T05:37:38;101052.84;;;12.29;59.98
78121;BME280;67585;44.802;10.332;2023-04-19T05:40:04;101048.31;;;12.39;58.94
78121;BME280;67585;44.802;10.332;2023-04-19T05:42:30;101036.31;;;12.25;60.21
78121;BME280;67585;44.802;10.332;2023-04-19T05:44:55;101053.53;;;12.51;59.39
78121;BME280;67585;44.802;10.332;2023-04-19T05:47:21;101044.84;;;12.44;58.98
78121;BME280;67585;44.802;10.332;2023-04-19T05:49:46;101050.91;;;12.24;59.22
78121;BME280;67585;44.802;10.332;2023-04-19T05:52:11;101050.59;;;12.21;59.60
78121;BME280;67585;44.802;10.332;2023-04-19T05:54:37;101037.06;;;12.15;60.00
78121;BME280;67585;44.802;10.332;2023-04-19T05:57:02;101047.66;;;12.22;59.97
78121;BME280;67585;44.802;10.332;2023-04-19T05:59:28;101041.38;;;12.11;60.25
78121;BME280;67585;44.802;10.332;2023-04-19T06:01:53;101040.38;;;12.23;60.31
78121;BME280;67585;44.802;10.332;2023-04-19T06:04:20;101031.81;;;12.36;59.78
78121;BME280;67585;44.802;10.332;2023-04-19T06:06:46;101036.78;;;12.54;58.98
78121;BME280;67585;44.802;10.332;2023-04-19T06:09:11;101046.59;;;12.71;58.21
78121;BME280;67585;44.802;10.332;2023-04-19T06:11:37;101029.44;;;12.97;56.91
78121;BME280;67585;44.802;10.332;2023-04-19T06:14:03;101038.38;;;13.08;56.34
78121;BME280;67585;44.802;10.332;2023-04-19T06:16:29;101033.00;;;13.13;55.90
78121;BME280;67585;44.802;10.332;2023-04-19T06:18:55;101037.81;;;13.01;56.87
78121;BME280;67585;44.802;10.332;2023-04-19T06:21:21;101037.91;;;13.26;56.35
78121;BME280;67585;44.802;10.332;2023-04-19T06:23:46;101034.66;;;13.24;55.94
78121;BME280;67585;44.802;10.332;2023-04-19T06:26:11;101033.34;;;13.32;54.79
78121;BME280;67585;44.802;10.332;2023-04-19T06:28:37;101037.69;;;13.38;55.11
78121;BME280;67585;44.802;10.332;2023-04-19T06:31:03;101036.34;;;13.36;54.60
78121;BME280;67585;44.802;10.332;2023-04-19T06:33:29;101040.41;;;13.38;55.11
78121;BME280;67585;44.802;10.332;2023-04-19T06:35:54;101028.78;;;13.58;54.00
78121;BME280;67585;44.802;10.332;2023-04-19T06:38:20;101034.25;;;13.89;53.67
78121;BME280;67585;44.802;10.332;2023-04-19T06:40:45;101031.50;;;14.09;52.52
78121;BME280;67585;44.802;10.332;2023-04-19T06:43:11;101026.59;;;14.32;51.25
78121;BME280;67585;44.802;10.332;2023-04-19T06:45:36;101029.84;;;14.49;51.40
78121;BME280;67585;44.802;10.332;2023-04-19T06:48:01;101018.72;;;14.61;50.51
78121;BME280;67585;44.802;10.332;2023-04-19T06:50:27;101017.66;;;14.37;50.56
78121;BME280;67585;44.802;10.332;2023-04-19T06:52:53;101017.22;;;14.94;49.10
78121;BME280;67585;44.802;10.332;2023-04-19T06:55:18;101018.84;;;15.01;48.79
78121;BME280;67585;44.802;10.332;2023-04-19T06:57:43;101017.41;;;15.13;48.24
78121;BME280;67585;44.802;10.332;2023-04-19T07:00:09;101018.72;;;15.21;48.93
78121;BME280;67585;44.802;10.332;2023-04-19T07:02:35;101013.69;;;15.44;48.84
78121;BME280;67585;44.802;10.332;2023-04-19T07:05:01;101014.91;;;15.67;48.65
78121;BME280;67585;44.802;10.332;2023-04-19T07:07:26;101012.97;;;15.72;48.88
78121;BME280;67585;44.802;10.332;2023-04-19T07:09:51;101017.34;;;15.68;48.22
78121;BME280;67585;44.802;10.332;2023-04-19T07:12:17;101013.84;;;15.63;48.35
78121;BME280;67585;44.802;10.332;2023-04-19T07:14:42;101003.38;;;15.85;47.72
78121;BME280;67585;44.802;10.332;2023-04-19T07:17:07;101011.13;;;16.02;47.18
78121;BME280;67585;44.802;10.332;2023-04-19T07:19:33;101010.34;;;16.26;45.61
78121;BME280;67585;44.802;10.332;2023-04-19T07:21:59;101015.91;;;16.39;46.65
78121;BME280;67585;44.802;10.332;2023-04-19T07:24:25;101011.66;;;16.81;45.96
78121;BME280;67585;44.802;10.332;2023-04-19T07:26:52;101009.09;;;16.90;44.55
78121;BME280;67585;44.802;10.332;2023-04-19T07:29:17;101004.19;;;16.92;45.04
78121;BME280;67585;44.802;10.332;2023-04-19T07:31:43;101014.03;;;16.88;44.90
78121;BME280;67585;44.802;10.332;2023-04-19T07:34:09;101005.81;;;17.12;43.60
78121;BME280;67585;44.802;10.332;2023-04-19T07:36:35;101000.50;;;17.59;42.99
78121;BME280;67585;44.802;10.332;2023-04-19T07:39:03;101000.84;;;17.71;43.01
78121;BME280;67585;44.802;10.332;2023-04-19T07:41:30;101001.06;;;17.75;43.01
78121;BME280;67585;44.802;10.332;2023-04-19T07:43:55;100989.94;;;17.90;42.20
78121;BME280;67585;44.802;10.332;2023-04-19T07:46:21;100989.97;;;18.04;41.66
78121;BME280;67585;44.802;10.332;2023-04-19T07:48:46;100991.00;;;18.49;41.71
78121;BME280;67585;44.802;10.332;2023-04-19T07:51:14;100990.81;;;18.46;41.34
78121;BME280;67585;44.802;10.332;2023-04-19T07:53:40;100992.25;;;18.57;41.66
78121;BME280;67585;44.802;10.332;2023-04-19T07:56:07;100985.84;;;18.62;40.97
78121;BME280;67585;44.802;10.332;2023-04-19T07:58:33;100994.75;;;18.81;41.16
78121;BME280;67585;44.802;10.332;2023-04-19T08:00:59;100993.03;;;18.99;41.35
78121;BME280;67585;44.802;10.332;2023-04-19T08:03:25;100990.06;;;19.09;41.42
78121;BME280;67585;44.802;10.332;2023-04-19T08:05:51;100984.47;;;18.92;41.25
78121;BME280;67585;44.802;10.332;2023-04-19T08:08:16;100992.94;;;18.90;41.94
78121;BME280;67585;44.802;10.332;2023-04-19T08:10:42;100987.09;;;18.83;41.52
78121;BME280;67585;44.802;10.332;2023-04-19T08:13:07;100987.91;;;18.84;41.87
78121;BME280;67585;44.802;10.332;2023-04-19T08:15:33;100980.47;;;19.34;41.05
78121;BME280;67585;44.802;10.332;2023-04-19T08:17:59;100983.97;;;19.49;40.29
78121;BME280;67585;44.802;10.332;2023-04-19T08:20:24;100985.66;;;19.58;39.82
78121;BME280;67585;44.802;10.332;2023-04-19T08:22:51;100982.13;;;19.35;40.63
78121;BME280;67585;44.802;10.332;2023-04-19T08:25:16;100976.16;;;19.33;39.57
78121;BME280;67585;44.802;10.332;2023-04-19T08:27:42;100983.19;;;19.48;39.67
78121;BME280;67585;44.802;10.332;2023-04-19T08:30:08;100976.56;;;19.85;39.10
78121;BME280;67585;44.802;10.332;2023-04-19T08:32:34;100976.41;;;19.46;40.50
78121;BME280;67585;44.802;10.332;2023-04-19T08:35:00;100969.97;;;19.87;39.91
78121;BME280;67585;44.802;10.332;2023-04-19T08:37:26;100963.84;;;20.21;39.51
78121;BME280;67585;44.802;10.332;2023-04-19T08:39:51;100968.81;;;20.19;38.89
78121;BME280;67585;44.802;10.332;2023-04-19T08:42:17;100974.56;;;20.48;38.36
78121;BME280;67585;44.802;10.332;2023-04-19T08:44:43;100967.22;;;20.58;38.85
78121;BME280;67585;44.802;10.332;2023-04-19T08:47:10;100966.69;;;20.47;38.40
78121;BME280;67585;44.802;10.332;2023-04-19T08:49:40;100956.97;;;20.63;37.61
78121;BME280;67585;44.802;10.332;2023-04-19T08:52:06;100973.53;;;20.67;37.52
78121;BME280;67585;44.802;10.332;2023-04-19T08:54:34;100961.75;;;20.58;38.48
78121;BME280;67585;44.802;10.332;2023-04-19T08:57:00;100960.22;;;21.00;38.10
78121;BME280;67585;44.802;10.332;2023-04-19T08:59:26;100941.84;;;21.18;36.89
78121;BME280;67585;44.802;10.332;2023-04-19T09:01:53;100952.81;;;21.35;36.64
78121;BME280;67585;44.802;10.332;2023-04-19T09:04:20;100956.03;;;21.20;36.44
78121;BME280;67585;44.802;10.332;2023-04-19T09:06:46;100942.34;;;21.20;36.83
78121;BME280;67585;44.802;10.332;2023-04-19T09:11:44;100939.94;;;21.36;36.77
78121;BME280;67585;44.802;10.332;2023-04-19T09:14:14;100933.00;;;21.39;35.72
78121;BME280;67585;44.802;10.332;2023-04-19T09:16:40;100931.19;;;21.60;35.73
78121;BME280;67585;44.802;10.332;2023-04-19T09:19:06;100933.00;;;21.47;36.15
78121;BME280;67585;44.802;10.332;2023-04-19T09:21:33;100928.63;;;21.64;34.85
78121;BME280;67585;44.802;10.332;2023-04-19T09:23:59;100930.09;;;21.52;35.15
78121;BME280;67585;44.802;10.332;2023-04-19T09:26:25;100920.91;;;21.48;35.40
78121;BME280;67585;44.802;10.332;2023-04-19T09:29:06;100916.00;;;21.80;34.88
78121;BME280;67585;44.802;10.332;2023-04-19T09:31:36;100916.59;;;21.94;33.85
78121;BME280;67585;44.802;10.332;2023-04-19T09:34:13;100911.38;;;21.63;35.16
78121;BME280;67585;44.802;10.332;2023-04-19T09:36:39;100907.81;;;21.63;35.04
78121;BME280;67585;44.802;10.332;2023-04-19T09:39:05;100910.22;;;22.20;34.25
78121;BME280;67585;44.802;10.332;2023-04-19T09:41:30;100903.41;;;22.26;34.17
78121;BME280;67585;44.802;10.332;2023-04-19T09:44:11;100902.72;;;21.91;34.43
78121;BME280;67585;44.802;10.332;2023-04-19T09:46:40;100899.09;;;22.08;33.83
78121;BME280;67585;44.802;10.332;2023-04-19T09:51:48;100891.00;;;22.20;33.79
78121;BME280;67585;44.802;10.332;2023-04-19T09:54:15;100882.38;;;22.81;33.54
78121;BME280;67585;44.802;10.332;2023-04-19T09:56:42;100886.97;;;22.47;33.77
78121;BME280;67585;44.802;10.332;2023-04-19T09:59:08;100873.91;;;22.44;33.47
78121;BME280;67585;44.802;10.332;2023-04-19T10:01:45;100881.56;;;22.80;32.96
78121;BME280;67585;44.802;10.332;2023-04-19T10:04:12;100879.91;;;22.67;33.17
78121;BME280;67585;44.802;10.332;2023-04-19T10:06:39;100875.31;;;22.71;32.58
78121;BME280;67585;44.802;10.332;2023-04-19T10:09:06;100861.44;;;23.31;31.57
78121;BME280;67585;44.802;10.332;2023-04-19T10:11:34;100867.72;;;22.98;32.63
78121;BME280;67585;44.802;10.332;2023-04-19T10:14:07;100857.75;;;23.27;32.24
78121;BME280;67585;44.802;10.332;2023-04-19T10:16:34;100853.84;;;23.28;32.61
78121;BME280;67585;44.802;10.332;2023-04-19T10:19:02;100850.97;;;23.24;32.66
78121;BME280;67585;44.802;10.332;2023-04-19T10:21:28;100854.88;;;22.81;32.47
78121;BME280;67585;44.802;10.332;2023-04-19T10:23:56;100840.22;;;22.98;32.22
78121;BME280;67585;44.802;10.332;2023-04-19T10:26:22;100843.75;;;23.19;32.86
78121;BME280;67585;44.802;10.332;2023-04-19T10:28:48;100850.25;;;23.48;31.45
78121;BME280;67585;44.802;10.332;2023-04-19T10:31:18;100833.53;;;23.20;31.64
78121;BME280;67585;44.802;10.332;2023-04-19T10:33:49;100834.66;;;23.52;31.06
78121;BME280;67585;44.802;10.332;2023-04-19T10:36:15;100826.63;;;23.47;32.13
78121;BME280;67585;44.802;10.332;2023-04-19T10:38:46;100827.63;;;22.55;32.20
78121;BME280;67585;44.802;10.332;2023-04-19T10:41:18;100821.41;;;22.67;31.81
78121;BME280;67585;44.802;10.332;2023-04-19T10:48:49;100813.31;;;23.37;31.16
78121;BME280;67585;44.802;10.332;2023-04-19T10:51:19;100808.53;;;23.71;29.88
78121;BME280;67585;44.802;10.332;2023-04-19T10:53:55;100801.81;;;23.80;31.23
78121;BME280;67585;44.802;10.332;2023-04-19T11:04:11;100785.19;;;23.64;30.87
78121;BME280;67585;44.802;10.332;2023-04-19T11:06:55;100781.66;;;23.88;31.00
78121;BME280;67585;44.802;10.332;2023-04-19T11:09:25;100775.34;;;23.76;31.03
78121;BME280;67585;44.802;10.332;2023-04-19T11:11:52;100762.69;;;22.92;32.57
78121;BME280;67585;44.802;10.332;2023-04-19T11:14:19;100763.59;;;23.66;32.59
78121;BME280;67585;44.802;10.332;2023-04-19T11:16:45;100754.69;;;23.45;31.87
78121;BME280;67585;44.802;10.332;2023-04-19T11:19:15;100752.59;;;24.16;30.54
78121;BME280;67585;44.802;10.332;2023-04-19T11:21:40;100759.84;;;24.08;29.94
78121;BME280;67585;44.802;10.332;2023-04-19T11:24:10;100740.56;;;24.08;29.82
78121;BME280;67585;44.802;10.332;2023-04-19T11:26:36;100749.41;;;24.01;30.45
78121;BME280;67585;44.802;10.332;2023-04-19T11:29:01;100744.03;;;23.93;30.63
78121;BME280;67585;44.802;10.332;2023-04-19T11:31:27;100738.94;;;24.07;29.57
78121;BME280;67585;44.802;10.332;2023-04-19T11:33:57;100735.63;;;24.42;29.34
78121;BME280;67585;44.802;10.332;2023-04-19T11:36:23;100730.75;;;24.35;29.28
78121;BME280;67585;44.802;10.332;2023-04-19T11:38:52;100729.75;;;24.27;28.88
78121;BME280;67585;44.802;10.332;2023-04-19T11:41:17;100726.81;;;23.83;29.21
78121;BME280;67585;44.802;10.332;2023-04-19T11:43:43;100733.91;;;23.11;30.83
78121;BME280;67585;44.802;10.332;2023-04-19T11:46:12;100712.06;;;22.81;31.14
78121;BME280;67585;44.802;10.332;2023-04-19T11:48:49;100722.13;;;22.77;31.27
78121;BME280;67585;44.802;10.332;2023-04-19T11:51:16;100704.59;;;23.15;31.23
78121;BME280;67585;44.802;10.332;2023-04-19T11:53:44;100713.72;;;24.05;29.36
78121;BME280;67585;44.802;10.332;2023-04-19T11:56:10;100706.66;;;23.92;29.73
78121;BME280;67585;44.802;10.332;2023-04-19T12:01:07;100692.00;;;24.56;27.89
78121;BME280;67585;44.802;10.332;2023-04-19T12:03:49;100688.69;;;24.10;28.75
78121;BME280;67585;44.802;10.332;2023-04-19T12:06:25;100679.66;;;24.09;28.19
78121;BME280;67585;44.802;10.332;2023-04-19T12:08:52;100672.03;;;23.91;27.76
78121;BME280;67585;44.802;10.332;2023-04-19T12:11:19;100667.34;;;24.19;28.08
78121;BME280;67585;44.802;10.332;2023-04-19T12:13:46;100668.06;;;24.16;27.49
78121;BME280;67585;44.802;10.332;2023-04-19T12:16:12;100665.59;;;24.27;27.47
78121;BME280;67585;44.802;10.332;2023-04-19T12:18:48;100670.94;;;24.48;27.12
78121;BME280;67585;44.802;10.332;2023-04-19T12:21:30;100662.22;;;24.18;28.14
78121;BME280;67585;44.802;10.332;2023-04-19T12:23:58;100651.59;;;24.04;28.02
78121;BME280;67585;44.802;10.332;2023-04-19T12:26:25;100649.72;;;23.80;29.18
78121;BME280;67585;44.802;10.332;2023-04-19T12:28:55;100645.63;;;23.12;29.75
78121;BME280;67585;44.802;10.332;2023-04-19T12:31:21;100642.03;;;24.14;27.94
78121;BME280;67585;44.802;10.332;2023-04-19T12:33:47;100639.03;;;24.47;28.07
78121;BME280;67585;44.802;10.332;2023-04-19T12:36:13;100629.72;;;24.99;27.34
78121;BME280;67585;44.802;10.332;2023-04-19T12:38:38;100640.28;;;24.49;28.74
78121;BME280;67585;44.802;10.332;2023-04-19T12:41:04;100628.63;;;24.56;28.36
78121;BME280;67585;44.802;10.332;2023-04-19T12:43:30;100618.59;;;24.48;27.99
78121;BME280;67585;44.802;10.332;2023-04-19T12:45:56;100624.06;;;24.76;27.56
78121;BME280;67585;44.802;10.332;2023-04-19T12:48:23;100613.91;;;24.64;26.93
78121;BME280;67585;44.802;10.332;2023-04-19T12:50:48;100616.81;;;24.12;28.39
78121;BME280;67585;44.802;10.332;2023-04-19T12:53:14;100610.09;;;23.97;28.72
78121;BME280;67585;44.802;10.332;2023-04-19T12:55:39;100610.78;;;22.92;29.75
78121;BME280;67585;44.802;10.332;2023-04-19T12:58:05;100602.44;;;23.25;29.58